createdAt,value
2023-03-25T00:01:38.919Z,96606.81
2023-03-25T00:03:42.822Z,96622.63
2023-03-25T00:05:45.429Z,96630.66
2023-03-25T00:07:51.665Z,96636.56
2023-03-25T00:09:54.239Z,96680.28
2023-03-25T00:11:58.140Z,96685.34
2023-03-25T00:14:00.912Z,96678.56
2023-03-25T00:16:07.150Z,96662.03
2023-03-25T00:18:09.734Z,96680.66
2023-03-25T00:20:14.027Z,96653.88
2023-03-25T00:22:16.601Z,96662.00
2023-03-25T00:24:19.412Z,96671.25
2023-03-25T00:26:22.328Z,96650.91
2023-03-25T00:28:27.012Z,96660.88
2023-03-25T00:30:29.682Z,96660.63
2023-03-25T00:32:32.374Z,96654.88
2023-03-25T00:34:41.649Z,96661.50
2023-03-25T00:36:45.608Z,96652.97
2023-03-25T00:38:49.964Z,96650.69
2023-03-25T00:40:53.098Z,96647.53
2023-03-25T00:42:55.897Z,96649.44
2023-03-25T00:44:59.839Z,96661.66
2023-03-25T00:47:02.414Z,96654.88
2023-03-25T00:49:05.488Z,96654.38
2023-03-25T00:51:09.877Z,96644.78
2023-03-25T00:53:12.605Z,96641.31
2023-03-25T00:55:15.607Z,96639.31
2023-03-25T00:57:18.297Z,96637.59
2023-03-25T00:59:21.118Z,96636.94
2023-03-25T01:01:28.547Z,96628.50
2023-03-25T01:03:31.372Z,96614.22
2023-03-25T01:05:34.169Z,96614.19
2023-03-25T01:07:37.232Z,96605.13
2023-03-25T01:09:41.578Z,96598.00
2023-03-25T01:11:45.782Z,96585.63
2023-03-25T01:13:48.431Z,96588.53
2023-03-25T01:15:51.397Z,96593.66
2023-03-25T01:17:55.692Z,96607.81
2023-03-25T01:19:58.474Z,96614.44
2023-03-25T01:22:01.229Z,96625.09
2023-03-25T01:24:03.903Z,96614.66
2023-03-25T01:26:07.021Z,96613.66
2023-03-25T01:28:09.609Z,96605.50
2023-03-25T01:30:13.606Z,96600.44
2023-03-25T01:32:16.360Z,96613.34
2023-03-25T01:34:20.391Z,96615.31
2023-03-25T01:36:24.624Z,96614.72
2023-03-25T01:38:27.356Z,96608.28
2023-03-25T01:40:30.084Z,96615.31
2023-03-25T01:42:32.717Z,96600.72
2023-03-25T01:45:21.024Z,96605.75
2023-03-25T01:47:26.708Z,96605.72
2023-03-25T01:49:38.879Z,96613.53
2023-03-25T01:51:45.485Z,96608.19
2023-03-25T01:53:48.824Z,96603.75
2023-03-25T01:55:54.569Z,96605.66
2023-03-25T01:57:59.605Z,96596.06
2023-03-25T02:00:08.588Z,96627.09
2023-03-25T02:02:17.675Z,96582.88
2023-03-25T02:04:27.305Z,96572.53
2023-03-25T02:06:39.192Z,96574.91
2023-03-25T02:08:41.813Z,96564.06
2023-03-25T02:10:46.796Z,96570.63
2023-03-25T02:12:49.355Z,96566.50
2023-03-25T02:14:52.306Z,96572.03
2023-03-25T02:17:05.114Z,96567.59
2023-03-25T02:19:32.992Z,96567.66
2023-03-25T02:22:11.638Z,96571.25
2023-03-25T02:24:45.893Z,96574.56
2023-03-25T02:27:14.370Z,96571.03
2023-03-25T02:29:30.154Z,96578.66
2023-03-25T02:31:59.896Z,96574.34
2023-03-25T02:34:37.794Z,96587.84
2023-03-25T02:37:05.011Z,96593.06
2023-03-25T02:39:14.313Z,96594.56
2023-03-25T02:41:23.952Z,96602.38
2023-03-25T02:43:33.316Z,96609.41
2023-03-25T02:45:42.136Z,96611.94
2023-03-25T02:47:48.636Z,96619.81
2023-03-25T02:49:56.873Z,96620.19
2023-03-25T02:52:06.368Z,96624.84
2023-03-25T02:54:13.608Z,96638.72
2023-03-25T02:56:21.371Z,96643.22
2023-03-25T02:58:24.804Z,96650.53
2023-03-25T03:00:29.943Z,96656.97
2023-03-25T03:02:34.117Z,96657.66
2023-03-25T03:04:49.997Z,96667.91
2023-03-25T03:06:54.811Z,96664.59
2023-03-25T03:09:25.390Z,96635.56
2023-03-25T03:11:30.946Z,96623.97
2023-03-25T03:13:48.398Z,96620.09
2023-03-25T03:16:00.975Z,96614.34
2023-03-25T03:18:13.381Z,96625.41
2023-03-25T03:20:22.250Z,96632.06
2023-03-25T03:22:40.757Z,96635.06
2023-03-25T03:24:48.807Z,96634.75
2023-03-25T03:26:58.386Z,96619.41
2023-03-25T03:29:08.342Z,96636.09
2023-03-25T03:31:48.835Z,96633.56
2023-03-25T03:33:50.620Z,96634.91
2023-03-25T03:35:58.666Z,96627.84
2023-03-25T03:38:04.835Z,96622.56
2023-03-25T03:40:14.540Z,96617.31
2023-03-25T03:42:22.559Z,96613.75
2023-03-25T03:44:29.584Z,96621.78
2023-03-25T03:46:37.619Z,96631.31
2023-03-25T03:48:45.494Z,96633.78
2023-03-25T03:50:53.882Z,96631.03
2023-03-25T03:53:03.493Z,96632.47
2023-03-25T03:55:13.924Z,96625.56
2023-03-25T03:57:21.395Z,96619.59
2023-03-25T03:59:28.825Z,96622.66
2023-03-25T04:01:35.752Z,96618.22
2023-03-25T04:03:43.837Z,96624.94
2023-03-25T04:05:54.759Z,96625.03
2023-03-25T04:08:00.903Z,96622.06
2023-03-25T04:10:14.720Z,96633.50
2023-03-25T04:12:23.099Z,96619.91
2023-03-25T04:14:26.245Z,96619.19
2023-03-25T04:16:29.547Z,96616.47
2023-03-25T04:18:33.674Z,96615.88
2023-03-25T04:20:37.350Z,96616.84
2023-03-25T04:22:45.262Z,96611.13
2023-03-25T04:24:49.669Z,96615.41
2023-03-25T04:26:53.069Z,96614.78
2023-03-25T04:29:00.573Z,96620.38
2023-03-25T04:31:07.499Z,96626.28
2023-03-25T04:33:10.166Z,96624.75
2023-03-25T04:35:12.870Z,96631.31
2023-03-25T04:37:15.554Z,96637.47
2023-03-25T04:39:22.420Z,96629.88
2023-03-25T04:41:25.694Z,96632.25
2023-03-25T04:43:28.398Z,96635.84
2023-03-25T04:45:36.311Z,96636.75
2023-03-25T04:47:44.999Z,96642.88
2023-03-25T04:49:48.084Z,96645.19
2023-03-25T04:51:51.760Z,96636.31
2023-03-25T04:53:54.380Z,96642.28
2023-03-25T04:55:58.640Z,96650.22
2023-03-25T04:58:01.253Z,96655.34
2023-03-25T05:00:05.217Z,96655.75
2023-03-25T05:02:13.603Z,96655.44
2023-03-25T05:04:17.979Z,96661.47
2023-03-25T05:06:20.558Z,96666.41
2023-03-25T05:08:23.250Z,96659.19
2023-03-25T05:10:29.497Z,96662.66
2023-03-25T05:12:32.102Z,96663.25
2023-03-25T05:14:34.654Z,96667.31
2023-03-25T05:16:37.557Z,96663.41
2023-03-25T05:18:41.467Z,96665.34
2023-03-25T05:20:46.734Z,96662.31
2023-03-25T05:22:49.369Z,96675.78
2023-03-25T05:24:53.393Z,96674.75
2023-03-25T05:26:56.623Z,96683.78
2023-03-25T05:29:01.696Z,96683.13
2023-03-25T05:31:08.180Z,96696.72
2023-03-25T05:33:11.235Z,96690.84
2023-03-25T05:35:15.125Z,96681.97
2023-03-25T05:37:17.815Z,96683.94
2023-03-25T05:39:20.361Z,96677.06
2023-03-25T05:41:33.324Z,96682.91
2023-03-25T05:43:35.966Z,96687.22
2023-03-25T05:45:38.531Z,96683.06
2023-03-25T05:47:41.239Z,96688.78
2023-03-25T05:49:43.819Z,96687.81
2023-03-25T05:51:49.766Z,96678.06
2023-03-25T05:53:53.223Z,96693.59
2023-03-25T05:55:55.815Z,96698.16
2023-03-25T05:57:58.788Z,96689.84
2023-03-25T06:00:01.621Z,96698.03
2023-03-25T06:02:04.237Z,96698.44
2023-03-25T06:04:10.011Z,96702.25
2023-03-25T06:06:14.066Z,96702.97
2023-03-25T06:08:19.673Z,96696.13
2023-03-25T06:10:22.787Z,96724.44
2023-03-25T06:12:27.439Z,96716.25
2023-03-25T06:14:30.036Z,96714.31
2023-03-25T06:16:35.609Z,96713.91
2023-03-25T06:18:38.569Z,96711.50
2023-03-25T06:20:41.120Z,96706.22
2023-03-25T06:22:45.834Z,96698.50
2023-03-25T06:24:49.824Z,96706.09
2023-03-25T06:26:52.822Z,96698.34
2023-03-25T06:28:55.611Z,96688.72
2023-03-25T06:30:58.370Z,96691.56
2023-03-25T06:33:03.113Z,96695.56
2023-03-25T06:35:07.859Z,96698.81
2023-03-25T06:37:11.452Z,96693.41
2023-03-25T06:39:14.105Z,96704.00
2023-03-25T06:41:20.362Z,96704.03
2023-03-25T06:43:23.231Z,96699.00
2023-03-25T06:45:25.802Z,96701.03
2023-03-25T06:47:28.378Z,96696.19
2023-03-25T06:49:31.197Z,96705.19
2023-03-25T06:51:33.761Z,96699.78
2023-03-25T06:53:36.377Z,96698.81
2023-03-25T06:55:39.564Z,96702.50
2023-03-25T06:57:43.585Z,96694.75
2023-03-25T06:59:47.268Z,96686.84
2023-03-25T07:01:50.018Z,96693.34
2023-03-25T07:03:52.721Z,96689.56
2023-03-25T07:05:55.293Z,96690.75
2023-03-25T07:07:58.809Z,96693.16
2023-03-25T07:10:01.606Z,96683.69
2023-03-25T07:12:06.417Z,96680.63
2023-03-25T07:14:12.332Z,96694.56
2023-03-25T07:16:15.121Z,96691.94
2023-03-25T07:18:17.746Z,96685.19
2023-03-25T07:20:20.325Z,96679.53
2023-03-25T07:22:22.905Z,96700.69
2023-03-25T07:24:25.623Z,96683.94
2023-03-25T07:26:28.180Z,96678.28
2023-03-25T07:28:30.827Z,96682.53
2023-03-25T07:30:34.772Z,96672.00
2023-03-25T07:32:37.354Z,96669.19
2023-03-25T07:34:39.977Z,96670.81
2023-03-25T07:36:42.521Z,96671.00
2023-03-25T07:38:45.254Z,96669.13
2023-03-25T07:40:50.195Z,96664.63
2023-03-25T07:42:53.044Z,96682.72
2023-03-25T07:44:55.610Z,96667.69
2023-03-25T07:46:59.544Z,96677.34
2023-03-25T07:49:02.235Z,96682.66
2023-03-25T07:51:06.513Z,96671.16
2023-03-25T07:53:09.102Z,96682.91
2023-03-25T07:55:11.704Z,96671.06
2023-03-25T07:57:14.290Z,96684.22
2023-03-25T07:59:16.842Z,96672.47
2023-03-25T08:01:19.407Z,96667.69
2023-03-25T08:03:23.393Z,96680.69
2023-03-25T08:05:26.037Z,96679.78
2023-03-25T08:07:28.824Z,96674.47
2023-03-25T08:09:33.597Z,96684.03
2023-03-25T08:11:36.498Z,96676.44
2023-03-25T08:13:42.010Z,96686.31
2023-03-25T08:15:44.577Z,96680.44
2023-03-25T08:17:47.758Z,96672.56
2023-03-25T08:19:51.708Z,96686.38
2023-03-25T08:21:54.287Z,96684.97
2023-03-25T08:24:02.337Z,96681.56
2023-03-25T08:26:06.435Z,96680.41
2023-03-25T08:28:08.997Z,96680.47
2023-03-25T08:30:15.049Z,96701.84
2023-03-25T08:32:17.625Z,96683.31
2023-03-25T08:34:22.118Z,96678.56
2023-03-25T08:36:26.037Z,96677.91
2023-03-25T08:38:34.469Z,96701.19
2023-03-25T08:40:37.703Z,96686.09
2023-03-25T08:42:43.511Z,96690.34
2023-03-25T08:44:46.077Z,96699.03
2023-03-25T08:46:48.783Z,96691.84
2023-03-25T08:48:51.354Z,96687.00
2023-03-25T08:50:54.276Z,96687.16
2023-03-25T08:52:58.941Z,96700.72
2023-03-25T08:55:01.512Z,96677.41
2023-03-25T08:57:04.350Z,96676.63
2023-03-25T08:59:06.958Z,96697.75
2023-03-25T09:01:09.547Z,96677.31
2023-03-25T09:03:12.318Z,96661.75
2023-03-25T09:05:16.005Z,96693.44
2023-03-25T09:07:19.867Z,96675.09
2023-03-25T09:09:24.198Z,96669.13
2023-03-25T09:11:36.152Z,96666.47
2023-03-25T09:13:39.288Z,96692.13
2023-03-25T09:15:42.264Z,96659.25
2023-03-25T09:17:45.244Z,96661.47
2023-03-25T09:19:47.968Z,96659.00
2023-03-25T09:21:50.789Z,96673.81
2023-03-25T09:23:53.695Z,96665.00
2023-03-25T09:26:03.816Z,96657.78
2023-03-25T09:28:06.598Z,96671.22
2023-03-25T09:30:10.285Z,96670.31
2023-03-25T09:32:13.992Z,96665.78
2023-03-25T09:34:16.570Z,96670.75
2023-03-25T09:36:19.231Z,96661.94
2023-03-25T09:38:22.278Z,96658.56
2023-03-25T09:40:25.159Z,96672.16
2023-03-25T09:43:01.639Z,96670.31
2023-03-25T09:45:15.883Z,96670.31
2023-03-25T09:47:21.218Z,96665.19
2023-03-25T09:49:31.318Z,96672.84
2023-03-25T09:51:36.981Z,96670.00
2023-03-25T09:53:44.526Z,96671.44
2023-03-25T09:55:48.629Z,96680.06
2023-03-25T09:57:57.427Z,96654.66
2023-03-25T10:00:06.762Z,96645.81
2023-03-25T10:02:24.577Z,96660.78
2023-03-25T10:04:47.550Z,96645.53
2023-03-25T10:07:03.509Z,96652.13
2023-03-25T10:09:27.205Z,96662.03
2023-03-25T10:11:37.442Z,96662.22
2023-03-25T10:13:49.233Z,96664.94
2023-03-25T10:15:57.787Z,96657.09
2023-03-25T10:18:19.956Z,96656.84
2023-03-25T10:20:26.156Z,96653.63
2023-03-25T10:22:36.515Z,96663.00
2023-03-25T10:24:45.577Z,96666.06
2023-03-25T10:26:53.676Z,96678.06
2023-03-25T10:29:03.695Z,96672.69
2023-03-25T10:31:10.180Z,96675.59
2023-03-25T10:33:19.894Z,96671.38
2023-03-25T10:35:25.797Z,96690.56
2023-03-25T10:37:32.659Z,96697.47
2023-03-25T10:39:38.172Z,96705.69
2023-03-25T10:41:43.376Z,96710.25
2023-03-25T10:43:46.015Z,96687.97
2023-03-25T10:45:52.390Z,96699.66
2023-03-25T10:48:01.050Z,96697.97
2023-03-25T10:50:04.557Z,96696.13
2023-03-25T10:52:07.549Z,96694.28
2023-03-25T10:54:13.277Z,96695.13
2023-03-25T10:56:18.702Z,96709.41
2023-03-25T10:58:21.538Z,96706.44
2023-03-25T11:00:26.206Z,96701.00
2023-03-25T11:02:32.265Z,96688.66
2023-03-25T11:04:39.530Z,96685.94
2023-03-25T11:06:46.750Z,96682.84
2023-03-25T11:09:18.438Z,96677.41
2023-03-25T11:11:21.193Z,96688.91
2023-03-25T11:13:26.715Z,96688.69
2023-03-25T11:15:32.734Z,96695.31
2023-03-25T11:17:36.753Z,96694.16
2023-03-25T11:19:42.939Z,96688.25
2023-03-25T11:21:49.026Z,96692.69
2023-03-25T11:23:53.055Z,96690.03
2023-03-25T11:25:56.794Z,96700.78
2023-03-25T11:28:02.971Z,96702.31
2023-03-25T11:30:15.460Z,96691.03
2023-03-25T11:32:18.164Z,96699.78
2023-03-25T11:34:24.055Z,96699.09
2023-03-25T11:36:29.966Z,96698.25
2023-03-25T11:38:34.394Z,96698.69
2023-03-25T11:40:36.990Z,96686.75
2023-03-25T11:42:42.613Z,96689.72
2023-03-25T11:44:52.118Z,96682.13
2023-03-25T11:46:58.324Z,96673.81
2023-03-25T11:49:11.866Z,96667.00
2023-03-25T11:51:20.248Z,96676.13
2023-03-25T11:53:28.003Z,96673.16
2023-03-25T11:55:37.035Z,96670.91
2023-03-25T11:57:42.728Z,96677.50
2023-03-25T11:59:46.876Z,96678.72
2023-03-25T12:01:51.409Z,96683.97
2023-03-25T12:04:06.294Z,96683.41
2023-03-25T12:06:20.587Z,96678.72
2023-03-25T12:08:23.262Z,96669.34
2023-03-25T12:10:38.982Z,96666.63
2023-03-25T12:12:48.569Z,96665.13
2023-03-25T12:15:04.866Z,96675.81
2023-03-25T12:17:17.699Z,96673.66
2023-03-25T12:19:29.883Z,96671.38
2023-03-25T12:21:47.796Z,96660.81
2023-03-25T12:23:59.897Z,96660.22
2023-03-25T12:26:11.073Z,96654.41
2023-03-25T12:28:40.069Z,96667.03
2023-03-25T12:30:55.256Z,96657.00
2023-03-25T12:33:07.038Z,96659.38
2023-03-25T12:35:17.561Z,96672.66
2023-03-25T12:37:31.598Z,96674.56
2023-03-25T12:39:50.209Z,96689.91
2023-03-25T12:42:02.809Z,96692.94
2023-03-25T12:44:11.486Z,96709.16
2023-03-25T12:46:25.533Z,96719.09
2023-03-25T12:48:40.939Z,96687.81
2023-03-25T12:50:54.462Z,96690.88
2023-03-25T12:53:11.794Z,96695.78
2023-03-25T12:55:32.604Z,96717.75
2023-03-25T12:57:52.515Z,96692.84
2023-03-25T13:00:09.113Z,96687.44
2023-03-25T13:02:27.069Z,96688.44
2023-03-25T13:04:49.733Z,96699.88
2023-03-25T13:07:00.139Z,96698.59
2023-03-25T13:09:12.514Z,96710.31
2023-03-25T13:11:21.343Z,96707.72
2023-03-25T13:13:27.609Z,96697.44
2023-03-25T13:15:36.032Z,96686.75
2023-03-25T13:17:46.422Z,96700.19
2023-03-25T13:19:49.574Z,96681.97
2023-03-25T13:21:55.374Z,96693.88
2023-03-25T13:24:02.726Z,96686.69
2023-03-25T13:26:11.733Z,96679.63
2023-03-25T13:28:18.391Z,96707.13
2023-03-25T13:30:32.565Z,96696.66
2023-03-25T13:32:40.214Z,96702.72
2023-03-25T13:34:50.091Z,96702.78
2023-03-25T13:37:04.843Z,96687.03
2023-03-25T13:39:14.696Z,96692.72
2023-03-25T13:41:26.677Z,96683.63
2023-03-25T13:43:34.103Z,96686.78
2023-03-25T13:45:45.022Z,96677.72
2023-03-25T13:47:55.373Z,96688.09
2023-03-25T13:50:02.385Z,96673.16
2023-03-25T13:52:07.485Z,96674.16
2023-03-25T13:54:16.126Z,96681.31
2023-03-25T13:56:54.871Z,96668.72
2023-03-25T13:59:18.547Z,96668.47
2023-03-25T14:01:37.882Z,96660.28
2023-03-25T14:04:04.156Z,96656.66
2023-03-25T14:06:39.234Z,96675.91
2023-03-25T14:09:35.715Z,96678.97
2023-03-25T14:11:44.058Z,96674.91
2023-03-25T14:13:53.487Z,96675.41
2023-03-25T14:16:04.058Z,96680.34
2023-03-25T14:18:13.686Z,96686.00
2023-03-25T14:20:24.452Z,96686.34
2023-03-25T14:22:29.736Z,96693.94
2023-03-25T14:24:34.864Z,96685.41
2023-03-25T14:26:44.490Z,96694.66
2023-03-25T14:28:48.697Z,96686.66
2023-03-25T14:31:11.226Z,96697.50
2023-03-25T14:33:13.910Z,96702.09
2023-03-25T14:35:59.272Z,96682.09
2023-03-25T14:38:42.707Z,96671.16
2023-03-25T14:41:02.726Z,96693.44
2023-03-25T14:43:21.200Z,96678.34
2023-03-25T14:45:59.494Z,96677.81
2023-03-25T14:48:03.489Z,96669.50
2023-03-25T14:50:32.795Z,96668.81
2023-03-25T14:52:41.590Z,96669.09
2023-03-25T14:54:44.677Z,96672.22
2023-03-25T14:56:54.608Z,96678.94
2023-03-25T14:59:01.540Z,96681.69
2023-03-25T15:01:07.694Z,96685.78
2023-03-25T15:03:14.211Z,96681.34
2023-03-25T15:05:19.996Z,96679.91
2023-03-25T15:07:42.916Z,96677.44
2023-03-25T15:09:50.701Z,96676.19
2023-03-25T15:11:59.975Z,96680.81
2023-03-25T15:14:06.882Z,96684.22
2023-03-25T15:16:18.953Z,96694.25
2023-03-25T15:18:54.644Z,96689.06
2023-03-25T15:21:04.231Z,96696.31
2023-03-25T15:23:32.638Z,96701.69
2023-03-25T15:25:37.514Z,96713.34
2023-03-25T15:28:11.797Z,96705.28
2023-03-25T15:30:51.829Z,96716.19
2023-03-25T15:33:11.870Z,96706.72
2023-03-25T15:35:34.561Z,96703.22
2023-03-25T15:38:02.082Z,96715.69
2023-03-25T15:40:14.817Z,96715.69
2023-03-25T15:42:50.305Z,96743.47
2023-03-25T15:45:16.336Z,96720.06
2023-03-25T15:47:59.064Z,96705.09
2023-03-25T15:50:36.288Z,96691.66
2023-03-25T15:53:05.774Z,96703.41
2023-03-25T15:55:10.465Z,96697.50
2023-03-25T15:57:22.593Z,96704.84
2023-03-25T15:59:34.876Z,96697.06
2023-03-25T16:01:42.690Z,96696.78
2023-03-25T16:03:46.551Z,96702.97
2023-03-25T16:05:53.035Z,96701.56
2023-03-25T16:07:58.989Z,96698.84
2023-03-25T16:10:14.718Z,96701.47
2023-03-25T16:12:22.178Z,96708.81
2023-03-25T16:14:25.271Z,96694.38
2023-03-25T16:16:34.391Z,96700.00
2023-03-25T16:18:41.268Z,96696.09
2023-03-25T16:20:44.710Z,96698.63
2023-03-25T16:22:50.507Z,96705.84
2023-03-25T16:24:55.617Z,96697.41
2023-03-25T16:26:58.164Z,96690.31
2023-03-25T16:29:08.561Z,96685.91
2023-03-25T16:31:28.393Z,96689.09
2023-03-25T16:33:33.056Z,96691.91
2023-03-25T16:35:39.680Z,96690.47
2023-03-25T16:37:42.451Z,96698.91
2023-03-25T16:39:45.931Z,96687.59
2023-03-25T16:41:50.720Z,96687.59
2023-03-25T16:43:54.861Z,96704.06
2023-03-25T16:45:59.483Z,96682.09
2023-03-25T16:48:07.147Z,96674.69
2023-03-25T16:50:18.865Z,96675.88
2023-03-25T16:52:26.477Z,96673.19
2023-03-25T16:54:36.124Z,96691.59
2023-03-25T16:56:40.358Z,96683.16
2023-03-25T16:58:57.846Z,96684.72
2023-03-25T17:01:02.676Z,96683.06
2023-03-25T17:03:05.891Z,96682.03
2023-03-25T17:05:16.160Z,96683.25
2023-03-25T17:07:22.524Z,96684.44
2023-03-25T17:09:34.033Z,96698.84
2023-03-25T17:11:37.043Z,96691.34
2023-03-25T17:13:45.230Z,96700.22
2023-03-25T17:15:49.370Z,96684.94
2023-03-25T17:17:56.590Z,96693.66
2023-03-25T17:20:06.035Z,96674.19
2023-03-25T17:22:17.391Z,96678.19
2023-03-25T17:24:23.913Z,96680.56
2023-03-25T17:26:33.027Z,96697.13
2023-03-25T17:28:39.002Z,96684.53
2023-03-25T17:30:45.996Z,96681.16
2023-03-25T17:32:51.050Z,96676.13
2023-03-25T17:34:58.742Z,96677.47
2023-03-25T17:37:03.920Z,96674.34
2023-03-25T17:39:15.581Z,96675.09
2023-03-25T17:41:19.747Z,96665.94
2023-03-25T17:43:25.999Z,96655.94
2023-03-25T17:45:28.574Z,96672.66
2023-03-25T17:47:31.178Z,96682.72
2023-03-25T17:49:34.076Z,96687.69
2023-03-25T17:51:36.714Z,96691.34
2023-03-25T17:53:39.293Z,96691.84
2023-03-25T17:55:41.827Z,96700.69
2023-03-25T17:57:44.689Z,96702.38
2023-03-25T17:59:48.983Z,96701.03
2023-03-25T18:01:51.768Z,96703.75
2023-03-25T18:03:54.889Z,96701.34
2023-03-25T18:05:58.519Z,96713.94
2023-03-25T18:08:01.988Z,96708.38
2023-03-25T18:10:14.973Z,96715.69
2023-03-25T18:12:17.555Z,96720.09
2023-03-25T18:14:20.268Z,96733.25
2023-03-25T18:16:25.457Z,96732.03
2023-03-25T18:18:28.077Z,96740.78
2023-03-25T18:20:33.338Z,96744.22
2023-03-25T18:22:36.650Z,96736.63
2023-03-25T18:24:39.939Z,96734.16
2023-03-25T18:26:44.382Z,96743.19
2023-03-25T18:28:47.316Z,96739.22
2023-03-25T18:30:54.400Z,96749.91
2023-03-25T18:32:59.176Z,96752.59
2023-03-25T18:35:01.764Z,96746.09
2023-03-25T18:37:04.628Z,96746.56
2023-03-25T18:39:08.277Z,96755.44
2023-03-25T18:41:13.850Z,96761.78
2023-03-25T18:43:17.118Z,96765.41
2023-03-25T18:45:20.193Z,96770.25
2023-03-25T18:47:24.219Z,96778.03
2023-03-25T18:49:29.049Z,96784.88
2023-03-25T18:51:32.099Z,96804.16
2023-03-25T18:53:34.654Z,96811.97
2023-03-25T18:55:38.153Z,96837.41
2023-03-25T18:57:42.260Z,96817.56
2023-03-25T18:59:44.867Z,96808.53
2023-03-25T19:01:47.970Z,96781.19
2023-03-25T19:03:51.492Z,96771.34
2023-03-25T19:05:55.417Z,96775.50
2023-03-25T19:07:57.984Z,96781.34
2023-03-25T19:10:00.552Z,96793.13
2023-03-25T19:12:03.100Z,96782.63
2023-03-25T19:14:06.129Z,96793.50
2023-03-25T19:16:09.430Z,96786.78
2023-03-25T19:18:18.068Z,96793.97
2023-03-25T19:20:23.245Z,96794.19
2023-03-25T19:22:29.412Z,96798.13
2023-03-25T19:24:32.019Z,96793.69
2023-03-25T19:26:34.694Z,96805.25
2023-03-25T19:28:37.298Z,96795.09
2023-03-25T19:30:44.953Z,96800.88
2023-03-25T19:32:48.364Z,96801.34
2023-03-25T19:34:51.367Z,96807.56
2023-03-25T19:37:02.318Z,96809.88
2023-03-25T19:39:06.653Z,96810.81
2023-03-25T19:41:11.278Z,96811.22
2023-03-25T19:43:13.866Z,96812.00
2023-03-25T19:45:17.989Z,96812.94
2023-03-25T19:47:20.547Z,96792.19
2023-03-25T19:49:32.927Z,96795.31
2023-03-25T19:51:43.097Z,96802.56
2023-03-25T19:53:45.676Z,96795.72
2023-03-25T19:55:51.441Z,96799.19
2023-03-25T19:57:55.113Z,96800.22
2023-03-25T19:59:57.737Z,96811.50
2023-03-25T20:02:01.175Z,96809.69
2023-03-25T20:04:04.770Z,96816.66
2023-03-25T20:06:08.814Z,96826.22
2023-03-25T20:08:11.767Z,96825.31
2023-03-25T20:10:20.166Z,96829.84
2023-03-25T20:12:24.340Z,96833.16
2023-03-25T20:14:27.076Z,96827.88
2023-03-25T20:16:30.789Z,96826.94
2023-03-25T20:18:33.778Z,96840.81
2023-03-25T20:20:36.363Z,96834.69
2023-03-25T20:22:39.891Z,96836.31
2023-03-25T20:24:42.506Z,96834.81
2023-03-25T20:26:45.514Z,96831.44
2023-03-25T20:28:49.440Z,96829.75
2023-03-25T20:30:52.290Z,96818.72
2023-03-25T20:32:55.017Z,96802.84
2023-03-25T20:34:57.652Z,96784.25
2023-03-25T20:37:01.419Z,96766.00
2023-03-25T20:39:05.631Z,96759.88
2023-03-25T20:41:08.461Z,96764.44
2023-03-25T20:43:13.510Z,96769.25
2023-03-25T20:45:18.927Z,96765.72
2023-03-25T20:47:21.503Z,96756.63
2023-03-25T20:49:24.152Z,96756.00
2023-03-25T20:51:26.770Z,96755.41
2023-03-25T20:53:30.262Z,96755.59
2023-03-25T20:55:32.873Z,96769.06
2023-03-25T20:57:36.049Z,96772.28
2023-03-25T20:59:38.640Z,96766.59
2023-03-25T21:01:42.663Z,96758.75
2023-03-25T21:03:45.488Z,96760.72
2023-03-25T21:05:48.054Z,96757.53
2023-03-25T21:07:51.060Z,96765.41
2023-03-25T21:09:53.707Z,96776.94
2023-03-25T21:11:56.518Z,96781.44
2023-03-25T21:13:59.574Z,96799.75
2023-03-25T21:16:03.928Z,96812.63
2023-03-25T21:18:11.072Z,96838.47
2023-03-25T21:20:14.003Z,96822.09
2023-03-25T21:22:17.049Z,96809.00
2023-03-25T21:24:21.546Z,96807.84
2023-03-25T21:26:24.629Z,96793.69
2023-03-25T21:28:27.737Z,96794.50
2023-03-25T21:30:33.032Z,96802.44
2023-03-25T21:32:35.643Z,96800.88
2023-03-25T21:34:40.573Z,96789.38
2023-03-25T21:36:43.664Z,96789.13
2023-03-25T21:38:47.048Z,96784.13
2023-03-25T21:40:55.386Z,96789.09
2023-03-25T21:42:57.981Z,96794.50
2023-03-25T21:45:02.606Z,96790.13
2023-03-25T21:47:09.051Z,96789.50
2023-03-25T21:49:15.413Z,96791.16
2023-03-25T21:51:20.300Z,96795.56
2023-03-25T21:53:24.715Z,96789.28
2023-03-25T21:55:27.508Z,96793.38
2023-03-25T21:57:30.524Z,96787.38
2023-03-25T21:59:33.109Z,96786.09
2023-03-25T22:01:35.988Z,96786.19
2023-03-25T22:03:40.262Z,96781.59
2023-03-25T22:05:42.959Z,96772.44
2023-03-25T22:07:46.927Z,96772.59
2023-03-25T22:09:49.488Z,96772.25
2023-03-25T22:11:52.042Z,96766.22
2023-03-25T22:13:54.620Z,96771.59
2023-03-25T22:15:57.258Z,96778.38
2023-03-25T22:17:59.879Z,96767.88
2023-03-25T22:20:02.484Z,96772.53
2023-03-25T22:22:10.791Z,96766.47
2023-03-25T22:24:14.853Z,96770.50
2023-03-25T22:26:19.276Z,96767.72
2023-03-25T22:28:21.826Z,96763.56
2023-03-25T22:30:24.397Z,96770.13
2023-03-25T22:32:27.548Z,96769.03
2023-03-25T22:34:30.767Z,96762.53
2023-03-25T22:36:35.403Z,96767.97
2023-03-25T22:38:38.003Z,96764.72
2023-03-25T22:40:41.963Z,96764.94
2023-03-25T22:42:44.534Z,96774.81
2023-03-25T22:44:47.112Z,96779.09
2023-03-25T22:46:50.459Z,96768.00
2023-03-25T22:48:53.157Z,96779.09
2023-03-25T22:50:56.093Z,96778.00
2023-03-25T22:52:58.681Z,96792.13
2023-03-25T22:55:01.293Z,96783.66
2023-03-25T22:57:05.664Z,96781.50
2023-03-25T22:59:09.441Z,96777.81
2023-03-25T23:01:19.945Z,96782.88
2023-03-25T23:03:23.411Z,96779.66
2023-03-25T23:05:26.231Z,96773.72
2023-03-25T23:07:28.864Z,96777.03
2023-03-25T23:09:42.315Z,96776.84
2023-03-25T23:11:45.656Z,96770.00
2023-03-25T23:13:51.860Z,96771.19
2023-03-25T23:16:02.287Z,96781.53
2023-03-25T23:18:05.020Z,96772.53
2023-03-25T23:20:09.618Z,96771.44
2023-03-25T23:22:12.192Z,96775.06
2023-03-25T23:24:14.772Z,96776.84
2023-03-25T23:26:19.805Z,96774.03
2023-03-25T23:28:22.514Z,96772.38
2023-03-25T23:30:26.470Z,96774.41
2023-03-25T23:32:29.074Z,96775.44
2023-03-25T23:34:33.795Z,96771.28
2023-03-25T23:36:38.374Z,96768.28
2023-03-25T23:38:40.974Z,96763.28
2023-03-25T23:40:43.533Z,96761.75
2023-03-25T23:42:46.247Z,96761.69
2023-03-25T23:44:49.405Z,96764.44
2023-03-25T23:46:53.391Z,96756.06
2023-03-25T23:49:02.060Z,96761.47
2023-03-25T23:51:05.158Z,96764.59
2023-03-25T23:53:07.695Z,96757.84
2023-03-25T23:55:12.315Z,96751.50
2023-03-25T23:57:14.944Z,96756.50
2023-03-25T23:59:17.503Z,96764.44
